VEGT/GAU METAR and TAF weather

Enter ICAO airport designator
Station Type Date Time Source
VEGT METAR 2022/01/18 06:30 UTC NOAA

VEGT 180630Z 04005KT 2500 HZ SCT018 BKN100 22/14 Q1015 NOSIG


Station Type Date Time Source
VEGT Decoded METAR 2022/01/18 06:30 UTC NOAA

Gauhati, India (VEGT) 26-06N 091-35E 54M
Jan 18, 2022 - 01:30 AM EST / 2022.01.18 0630 UTC
Wind: from the NE (040 degrees) at 6 MPH (5 KT):0
Visibility: 1 mile(s):0
Sky conditions: mostly cloudy
Weather: haze
Temperature: 71 F (22 C)
Dew Point: 57 F (14 C)
Relative Humidity: 60%
Pressure (altimeter): 29.97 in. Hg (1015 hPa)
ob: VEGT 180630Z 04005KT 2500 HZ SCT018 BKN100 22/14 Q1015 NOSIG
cycle: 6

Station Type Date Time Source
VEGT TAF 2020/12/17 12:52 UTC NOAA

TAF VEGT 171100Z 1712/1818 03005KT 2000 BR SCT018 BKN100
BECMG 1713/1715 00000KT 1500 BR
BECMG 1800/1802 0800 FG FEW008
BECMG 1803/1805 03004KT 2000 BR SCT018 BKN100
BECMG 1806/1808 34008KT 3000 HZ FEW020
BECMG 1813/1815 00000KT 2000 BR FEW018 SCT100

Example: see airport list